Time;durP1;ratioP1;P1;durP2;ratioP2;P2;SDS_P1;SDS_P2;PMS_P1;PMS_P2;Temp;Humidity;BMP_temperature;BMP_pressure;BME280_temperature;BME280_humidity;BME280_pressure;Samples;Min_cycle;Max_cycle;Signal;HPM_P1;HPM_P2
2022/08/31 00:04:31;;;;;;;4.40;2.60;;;;;;;21.49;54.57;98787.41;5065365;28;20066;-69
2022/08/31 00:06:56;;;;;;;7.32;2.80;;;;;;;21.32;54.82;98787.66;5071122;28;20290;-69
2022/08/31 00:09:22;;;;;;;5.85;3.08;;;;;;;21.13;55.35;98765.34;5071853;28;20111;-69
2022/08/31 00:11:47;;;;;;;7.65;3.20;;;;;;;21.09;55.74;98778.84;5083818;28;20028;-69
2022/08/31 00:14:13;;;;;;;4.57;2.92;;;;;;;21.08;56.18;98785.41;5067363;28;20036;-69
2022/08/31 00:16:41;;;;;;;5.35;2.92;;;;;;;21.09;56.55;98783.47;5061712;28;20367;-69
2022/08/31 00:19:06;;;;;;;4.30;2.55;;;;;;;20.96;56.82;98776.59;5064584;28;20035;-69
2022/08/31 00:21:32;;;;;;;5.05;2.63;;;;;;;20.91;57.27;98771.09;5069984;28;20032;-69
2022/08/31 00:23:58;;;;;;;4.47;2.50;;;;;;;20.89;57.40;98774.09;5069394;28;20029;-69
2022/08/31 00:26:24;;;;;;;6.07;3.25;;;;;;;20.87;57.10;98778.22;5070242;28;20035;-69
2022/08/31 00:28:50;;;;;;;4.68;2.70;;;;;;;20.84;57.36;98781.53;5047746;28;20120;-69
2022/08/31 00:31:16;;;;;;;8.80;3.03;;;;;;;20.75;57.51;98767.44;5066111;28;20039;-69
2022/08/31 00:33:42;;;;;;;5.80;2.75;;;;;;;20.82;57.68;98789.22;5068700;28;20024;-69
2022/08/31 00:36:11;;;;;;;9.50;3.10;;;;;;;20.84;57.82;98789.78;5067493;28;20375;-69
2022/08/31 00:38:38;;;;;;;8.55;2.90;;;;;;;20.85;58.68;98794.16;5067911;28;20409;-69
2022/08/31 00:41:04;;;;;;;7.15;3.15;;;;;;;20.88;58.77;98796.38;5068276;28;20052;-69
2022/08/31 00:43:37;;;;;;;9.00;3.17;;;;;;;20.85;58.88;98810.66;5068197;28;20042;-69
2022/08/31 00:46:02;;;;;;;4.10;2.80;;;;;;;20.85;59.08;98810.66;5081184;28;20062;-69
2022/08/31 00:48:28;;;;;;;5.10;2.75;;;;;;;20.77;59.77;98807.34;5065688;28;20053;-69
2022/08/31 00:50:54;;;;;;;8.20;3.08;;;;;;;20.66;59.62;98782.84;5059120;28;20579;-69
2022/08/31 00:53:20;;;;;;;5.45;2.80;;;;;;;20.83;59.42;98813.69;5072340;28;20132;-69
2022/08/31 00:55:46;;;;;;;5.82;3.03;;;;;;;20.74;60.22;98799.63;5065978;28;20040;-69
2022/08/31 00:58:12;;;;;;;5.47;2.45;;;;;;;20.75;60.53;98825.19;5069475;28;20029;-69
2022/08/31 01:00:39;;;;;;;3.40;2.47;;;;;;;20.63;60.01;98825.44;5043824;28;20060;-68
2022/08/31 01:03:05;;;;;;;4.68;2.63;;;;;;;20.49;60.73;98829.75;5067314;28;20027;-68
2022/08/31 01:05:31;;;;;;;5.47;2.72;;;;;;;20.45;61.13;98834.13;5064698;28;20024;-69
2022/08/31 01:07:58;;;;;;;5.95;2.80;;;;;;;20.18;62.09;98812.28;5065777;28;20077;-69
2022/08/31 01:10:28;;;;;;;5.00;2.47;;;;;;;20.20;62.85;98821.91;5070583;28;20020;-68
2022/08/31 01:12:57;;;;;;;5.70;2.85;;;;;;;20.24;62.47;98828.50;5068549;28;20501;-69
2022/08/31 01:15:23;;;;;;;4.18;2.60;;;;;;;20.19;62.52;98825.72;5081091;28;20024;-69
2022/08/31 01:17:51;;;;;;;8.65;2.85;;;;;;;20.19;62.82;98831.22;5066162;28;20425;-69
2022/08/31 01:20:26;;;;;;;7.18;2.78;;;;;;;20.03;63.36;98822.06;5062058;28;20024;-69
2022/08/31 01:23:04;;;;;;;6.13;2.50;;;;;;;20.08;63.63;98840.50;5066960;28;20037;-69
2022/08/31 01:25:29;;;;;;;6.28;2.90;;;;;;;20.06;64.21;98835.25;5065390;28;20432;-69
2022/08/31 01:27:58;;;;;;;7.38;2.72;;;;;;;20.02;64.68;98836.06;5069312;28;20020;-69
2022/08/31 01:30:25;;;;;;;5.35;2.83;;;;;;;19.94;65.62;98837.38;5075469;28;20020;-69
2022/08/31 01:32:50;;;;;;;7.72;3.00;;;;;;;19.91;66.08;98843.38;5061133;28;20043;-69
2022/08/31 01:35:16;;;;;;;7.57;2.75;;;;;;;19.84;66.48;98846.38;5050280;28;20127;-69
2022/08/31 01:37:42;;;;;;;6.15;2.45;;;;;;;19.80;67.09;98847.97;5066945;28;20083;-69
2022/08/31 01:40:08;;;;;;;6.82;2.63;;;;;;;19.75;67.24;98847.94;5072134;28;20047;-69
2022/08/31 01:42:33;;;;;;;5.25;2.70;;;;;;;19.77;66.80;98845.75;5076354;28;20520;-69
2022/08/31 01:44:58;;;;;;;9.10;3.13;;;;;;;19.59;67.79;98826.91;5052972;28;20119;-69
2022/08/31 01:47:24;;;;;;;5.43;2.97;;;;;;;19.61;68.71;98847.53;5069608;28;20055;-69
2022/08/31 01:49:49;;;;;;;5.72;2.75;;;;;;;19.51;69.83;98852.09;5068671;28;20028;-69
2022/08/31 01:52:15;;;;;;;6.15;3.50;;;;;;;19.45;71.92;98853.97;5071793;28;20020;-69
2022/08/31 01:54:40;;;;;;;6.18;3.17;;;;;;;19.30;74.91;98846.41;5069864;28;20033;-69
2022/08/31 01:57:05;;;;;;;5.93;2.95;;;;;;;19.34;77.33;98858.53;5064416;28;20395;-69
2022/08/31 01:59:31;;;;;;;8.07;3.60;;;;;;;19.39;81.99;98858.59;5069126;28;20032;-69
2022/08/31 02:01:56;;;;;;;6.50;3.67;;;;;;;19.34;85.52;98854.97;5066812;28;20055;-69
2022/08/31 02:04:24;;;;;;;6.10;3.47;;;;;;;19.29;87.00;98874.94;5050933;28;20393;-69
2022/08/31 02:06:51;;;;;;;7.53;3.45;;;;;;;19.26;88.56;98875.47;5071868;28;20039;-69
2022/08/31 02:09:17;;;;;;;7.43;3.85;;;;;;;19.17;91.24;98872.31;5065261;28;20029;-69
2022/08/31 02:11:43;;;;;;;7.25;3.97;;;;;;;19.08;94.35;98871.16;5050562;28;20119;-69
2022/08/31 02:14:09;;;;;;;5.88;3.75;;;;;;;19.05;96.74;98880.72;5040332;28;20119;-69
2022/08/31 02:16:35;;;;;;;5.63;3.78;;;;;;;19.05;99.37;98882.63;5066826;28;20648;-69
2022/08/31 02:19:01;;;;;;;9.73;4.10;;;;;;;19.06;99.47;98873.31;5071242;28;20161;-69
2022/08/31 02:21:26;;;;;;;9.55;4.13;;;;;;;19.01;100.00;98879.56;5071103;28;20513;-69
2022/08/31 02:23:52;;;;;;;5.93;4.57;;;;;;;19.08;100.00;98875.81;5066036;28;20025;-69
2022/08/31 02:26:17;;;;;;;8.73;4.45;;;;;;;18.99;100.00;98872.66;5065523;28;20028;-69
2022/08/31 02:28:43;;;;;;;12.48;4.70;;;;;;;18.93;100.00;98870.97;5070489;28;20470;-69
2022/08/31 02:31:08;;;;;;;6.50;4.20;;;;;;;18.96;100.00;98870.44;5066031;28;20115;-69
2022/08/31 02:33:33;;;;;;;8.63;4.60;;;;;;;18.95;100.00;98877.03;5065900;28;20020;-69
2022/08/31 02:35:59;;;;;;;5.75;4.32;;;;;;;18.88;100.00;98869.00;5066196;28;20043;-69
2022/08/31 02:38:24;;;;;;;9.20;4.35;;;;;;;18.73;100.00;98857.81;5071581;28;20031;-69
2022/08/31 02:40:50;;;;;;;8.52;4.80;;;;;;;18.84;100.00;98878.81;5064277;28;20400;-69
2022/08/31 02:43:16;;;;;;;7.07;4.28;;;;;;;18.84;100.00;98873.34;5069694;28;20025;-69
2022/08/31 02:45:41;;;;;;;9.13;4.35;;;;;;;18.76;100.00;98862.84;5063922;28;20016;-69
2022/08/31 02:48:09;;;;;;;7.47;4.53;;;;;;;18.80;100.00;98869.44;5070454;28;20032;-69
2022/08/31 02:50:43;;;;;;;8.30;4.70;;;;;;;18.76;100.00;98868.31;5053226;28;20421;-69
2022/08/31 02:53:10;;;;;;;6.50;4.05;;;;;;;18.67;100.00;98867.06;5087695;28;20033;-69
2022/08/31 02:55:36;;;;;;;7.00;4.32;;;;;;;18.64;100.00;98862.09;5062526;28;20129;-69
2022/08/31 02:58:02;;;;;;;7.47;4.80;;;;;;;18.56;100.00;98872.41;5061716;28;20028;-69
2022/08/31 03:00:28;;;;;;;7.90;4.10;;;;;;;18.54;100.00;98876.47;5065210;28;20026;-69
2022/08/31 03:02:53;;;;;;;9.32;4.88;;;;;;;18.44;100.00;98844.28;5066488;28;20430;-68
2022/08/31 03:05:20;;;;;;;12.45;4.43;;;;;;;18.55;100.00;98867.19;5067551;28;20523;-69
2022/08/31 03:07:48;;;;;;;9.93;4.85;;;;;;;18.53;100.00;98867.44;5073705;28;20500;-69
2022/08/31 03:10:14;;;;;;;8.65;4.68;;;;;;;18.49;100.00;98858.03;5066093;28;20024;-69
2022/08/31 03:12:40;;;;;;;6.80;5.03;;;;;;;18.51;100.00;98869.59;5079534;28;20108;-69
2022/08/31 03:15:07;;;;;;;8.15;5.05;;;;;;;18.42;100.00;98856.56;5068601;28;20561;-69
2022/08/31 03:17:32;;;;;;;7.05;4.68;;;;;;;18.41;100.00;98855.75;5072945;28;20017;-69
2022/08/31 03:20:03;;;;;;;5.80;4.30;;;;;;;18.38;100.00;98856.25;5080518;28;20040;-69
2022/08/31 03:22:28;;;;;;;7.38;4.93;;;;;;;18.37;100.00;98865.56;5072613;28;20265;-69
2022/08/31 03:24:54;;;;;;;8.63;4.97;;;;;;;18.42;100.00;98860.16;5052775;28;21191;-69
2022/08/31 03:27:20;;;;;;;7.75;4.95;;;;;;;18.27;100.00;98851.72;5059376;28;20052;-75
2022/08/31 03:29:45;;;;;;;7.32;5.07;;;;;;;18.26;100.00;98852.78;5070991;28;20024;-76
2022/08/31 03:32:11;;;;;;;5.97;4.47;;;;;;;18.05;100.00;98825.16;5069414;28;20059;-76
2022/08/31 03:34:36;;;;;;;7.00;5.05;;;;;;;18.30;100.00;98873.13;5141293;22;20469;-61
2022/08/31 03:37:02;;;;;;;7.82;5.20;;;;;;;18.28;100.00;98862.41;5009695;28;20029;-60
2022/08/31 03:39:28;;;;;;;6.93;4.97;;;;;;;18.28;100.00;98875.28;4998210;28;20026;-61
2022/08/31 03:41:53;;;;;;;10.13;5.70;;;;;;;18.26;100.00;98875.56;4998860;28;20029;-61
2022/08/31 03:44:22;;;;;;;7.40;5.47;;;;;;;18.25;100.00;98870.31;5012086;28;20443;-61
2022/08/31 03:46:48;;;;;;;8.50;5.23;;;;;;;18.29;100.00;98868.75;5017558;28;20120;-61
2022/08/31 03:49:14;;;;;;;8.18;5.38;;;;;;;18.31;100.00;98866.56;5016511;28;20272;-61
2022/08/31 03:51:40;;;;;;;11.68;4.50;;;;;;;18.27;100.00;98865.41;5009303;28;20072;-62
2022/08/31 03:54:05;;;;;;;7.13;5.10;;;;;;;18.29;100.00;98869.56;5015505;28;20028;-61
2022/08/31 03:56:31;;;;;;;6.85;5.22;;;;;;;18.22;100.00;98860.69;5012768;28;20463;-61
2022/08/31 03:58:56;;;;;;;6.50;5.20;;;;;;;18.17;100.00;98872.41;5006913;28;20030;-61
2022/08/31 04:01:21;;;;;;;7.20;5.30;;;;;;;18.16;100.00;98864.44;5014185;28;20040;-61
2022/08/31 04:03:47;;;;;;;8.15;5.53;;;;;;;18.13;100.00;98863.03;5017768;28;20140;-61
2022/08/31 04:06:12;;;;;;;6.68;5.22;;;;;;;18.08;100.00;98867.63;5016183;28;20349;-61
2022/08/31 04:08:39;;;;;;;11.45;5.75;;;;;;;18.06;100.00;98872.50;5017466;28;20014;-61
2022/08/31 04:11:11;;;;;;;8.27;5.45;;;;;;;18.05;100.00;98863.47;5015088;28;20033;-61
2022/08/31 04:13:37;;;;;;;7.18;5.20;;;;;;;18.10;100.00;98862.69;5016745;28;20022;-61
2022/08/31 04:16:06;;;;;;;8.88;5.60;;;;;;;18.05;100.00;98866.22;5006603;28;20025;-61
2022/08/31 04:18:32;;;;;;;9.07;5.70;;;;;;;17.92;100.00;98852.84;5014903;28;20029;-61
2022/08/31 04:20:57;;;;;;;11.32;5.40;;;;;;;17.98;100.00;98862.81;5029106;28;20596;-61
2022/08/31 04:23:28;;;;;;;7.05;5.00;;;;;;;17.98;100.00;98867.47;5017413;28;20056;-61
2022/08/31 04:25:53;;;;;;;7.13;5.03;;;;;;;17.95;100.00;98866.03;5012753;28;20396;-61
2022/08/31 04:28:19;;;;;;;7.13;5.03;;;;;;;17.95;100.00;98872.34;5011502;28;20026;-61
2022/08/31 04:30:44;;;;;;;7.10;5.50;;;;;;;17.96;100.00;98870.44;5009798;28;20029;-61
2022/08/31 04:33:10;;;;;;;7.68;5.30;;;;;;;17.97;100.00;98874.81;5023962;28;20041;-61
2022/08/31 04:35:38;;;;;;;7.60;5.10;;;;;;;18.00;100.00;98881.69;5005751;28;20029;-61
2022/08/31 04:38:04;;;;;;;7.53;4.82;;;;;;;18.06;100.00;98870.59;5010993;28;20029;-61
2022/08/31 04:40:29;;;;;;;7.60;4.90;;;;;;;18.04;100.00;98880.13;5016578;28;20126;-61
2022/08/31 04:42:54;;;;;;;8.77;5.15;;;;;;;18.08;100.00;98884.03;5033490;28;20035;-62
2022/08/31 04:45:20;;;;;;;9.38;4.63;;;;;;;18.07;100.00;98885.94;5013686;28;20056;-61
2022/08/31 04:47:45;;;;;;;7.45;5.10;;;;;;;18.09;100.00;98889.25;5006325;28;20029;-61
2022/08/31 04:50:13;;;;;;;9.48;5.25;;;;;;;18.02;100.00;98893.25;5015816;28;20059;-61
2022/08/31 04:52:38;;;;;;;9.52;5.53;;;;;;;18.01;100.00;98897.88;5015973;28;20445;-61
2022/08/31 04:55:04;;;;;;;8.20;4.90;;;;;;;18.03;100.00;98892.19;5031999;28;20053;-61
2022/08/31 04:57:34;;;;;;;7.55;4.57;;;;;;;18.01;100.00;98900.63;5030087;28;20469;-61
2022/08/31 05:00:00;;;;;;;6.55;4.43;;;;;;;17.99;100.00;98908.25;5006755;28;20029;-61
2022/08/31 05:02:25;;;;;;;10.23;4.78;;;;;;;17.96;100.00;98906.84;5013868;28;20043;-61
2022/08/31 05:04:51;;;;;;;6.57;4.57;;;;;;;17.91;100.00;98906.75;5014209;28;20036;-61
2022/08/31 05:07:16;;;;;;;7.97;4.30;;;;;;;17.92;100.00;98910.31;5009144;28;20025;-61
2022/08/31 05:09:42;;;;;;;7.10;4.50;;;;;;;17.89;100.00;98908.94;5014328;28;20029;-61
2022/08/31 05:12:07;;;;;;;6.38;3.78;;;;;;;17.91;100.00;98904.03;5013991;28;20035;-61
2022/08/31 05:14:34;;;;;;;5.43;3.47;;;;;;;17.95;100.00;98912.59;5011855;28;20018;-61
2022/08/31 05:17:00;;;;;;;9.02;3.85;;;;;;;18.01;100.00;98917.06;5016829;28;20022;-64
2022/08/31 05:19:25;;;;;;;6.20;3.45;;;;;;;18.11;97.48;98922.69;5015729;28;20036;-61
2022/08/31 05:21:51;;;;;;;11.43;3.15;;;;;;;18.10;92.13;98926.53;5011862;28;20025;-61
2022/08/31 05:24:20;;;;;;;4.22;2.97;;;;;;;18.10;88.69;98917.47;5009672;28;20030;-62
2022/08/31 05:26:49;;;;;;;9.45;3.35;;;;;;;18.07;88.44;98929.72;5016708;28;20025;-61
2022/08/31 05:29:16;;;;;;;6.70;3.13;;;;;;;18.06;88.20;98930.00;5014474;28;20033;-61
2022/08/31 05:31:43;;;;;;;6.53;3.47;;;;;;;18.04;88.63;98926.69;5002642;28;20025;-61
2022/08/31 05:34:11;;;;;;;5.82;3.20;;;;;;;18.07;87.40;98928.91;5007717;28;20055;-61
2022/08/31 05:36:40;;;;;;;8.32;2.85;;;;;;;18.14;86.79;98932.31;5014857;28;20021;-61
2022/08/31 05:39:08;;;;;;;8.38;3.15;;;;;;;18.08;86.39;98928.69;5007073;28;20030;-60
2022/08/31 05:41:34;;;;;;;5.85;2.80;;;;;;;18.11;86.85;98943.78;5023747;28;20017;-61
2022/08/31 05:44:01;;;;;;;4.70;2.88;;;;;;;18.10;87.87;98937.47;5018613;28;20124;-62
2022/08/31 05:46:28;;;;;;;5.13;2.88;;;;;;;18.13;87.73;98936.97;5015251;28;20052;-61
2022/08/31 05:48:54;;;;;;;4.40;2.78;;;;;;;18.13;87.69;98942.44;5011911;28;20041;-61
2022/08/31 05:51:19;;;;;;;6.22;3.15;;;;;;;18.18;87.28;98939.78;5014712;28;20090;-61
2022/08/31 05:53:46;;;;;;;6.43;3.13;;;;;;;18.18;86.48;98939.78;5009930;28;20018;-61
2022/08/31 05:56:14;;;;;;;5.88;2.92;;;;;;;18.25;85.68;98944.25;5024396;28;20068;-62
2022/08/31 05:58:42;;;;;;;5.43;2.95;;;;;;;18.27;84.24;98950.31;5013151;28;20040;-62
2022/08/31 06:01:16;;;;;;;5.43;2.72;;;;;;;18.27;84.76;98942.94;5013933;28;20072;-62
2022/08/31 06:03:42;;;;;;;6.90;3.00;;;;;;;18.34;83.05;98934.56;5015848;28;20026;-63
2022/08/31 06:06:08;;;;;;;4.70;2.75;;;;;;;18.39;81.87;98948.31;5014332;28;20036;-62
2022/08/31 06:08:38;;;;;;;8.55;2.97;;;;;;;18.48;81.16;98949.56;5007038;28;20029;-62
2022/08/31 06:11:05;;;;;;;6.18;2.78;;;;;;;18.52;80.54;98958.09;5025649;28;20025;-61
2022/08/31 06:13:31;;;;;;;4.68;3.15;;;;;;;18.47;80.11;98944.31;5010535;28;20030;-61
2022/08/31 06:15:59;;;;;;;7.95;2.90;;;;;;;18.55;79.88;98950.22;5027300;23;20036;-61
2022/08/31 06:18:25;;;;;;;7.00;2.60;;;;;;;18.56;79.86;98949.13;5053814;28;20064;-62
2022/08/31 06:21:01;;;;;;;8.10;2.67;;;;;;;18.66;79.64;98953.09;5050970;28;20060;-62
2022/08/31 06:23:26;;;;;;;4.47;2.80;;;;;;;18.64;79.19;98950.59;5062602;28;20024;-63
2022/08/31 06:26:00;;;;;;;6.00;2.88;;;;;;;18.59;79.27;98954.09;5067816;28;20513;-62
2022/08/31 06:28:26;;;;;;;7.00;3.10;;;;;;;18.55;79.72;98955.69;5090638;28;20039;-62
2022/08/31 06:30:52;;;;;;;6.85;2.70;;;;;;;18.55;80.12;98955.69;5065233;28;20024;-62
2022/08/31 06:33:17;;;;;;;6.47;3.03;;;;;;;18.58;79.26;98951.63;5055820;28;20016;-62
2022/08/31 06:35:43;;;;;;;4.75;2.60;;;;;;;18.60;79.92;98953.03;5065181;28;20024;-62
2022/08/31 06:38:08;;;;;;;5.88;2.95;;;;;;;18.62;79.65;98956.31;5063850;28;20028;-62
2022/08/31 06:40:34;;;;;;;5.97;2.72;;;;;;;18.67;79.12;98957.50;5066809;28;20471;-62
2022/08/31 06:42:59;;;;;;;6.90;2.90;;;;;;;18.72;78.57;98960.31;5062956;28;20039;-62
2022/08/31 06:45:25;;;;;;;4.32;2.65;;;;;;;18.74;78.65;98963.63;5079764;28;20035;-62
2022/08/31 06:47:50;;;;;;;4.95;2.67;;;;;;;18.76;78.16;98961.50;5067417;28;20048;-62
2022/08/31 06:50:16;;;;;;;8.07;3.13;;;;;;;18.77;77.61;98963.16;5075484;28;20020;-62
2022/08/31 06:52:42;;;;;;;5.53;3.25;;;;;;;19.01;76.58;98966.47;5071598;28;20087;-61
2022/08/31 06:55:08;;;;;;;7.97;3.20;;;;;;;18.91;76.18;98964.44;5069932;28;20540;-62
2022/08/31 06:57:34;;;;;;;5.47;3.05;;;;;;;18.92;76.85;98968.03;5067277;28;20478;-62
2022/08/31 06:59:59;;;;;;;9.93;3.50;;;;;;;18.96;76.54;98967.25;5068445;28;20036;-62
2022/08/31 07:02:25;;;;;;;6.00;3.15;;;;;;;19.00;75.96;98965.66;5067251;28;20028;-61
2022/08/31 07:04:50;;;;;;;5.35;3.33;;;;;;;19.14;75.73;98973.50;5071586;28;20028;-62
2022/08/31 07:07:15;;;;;;;6.90;3.20;;;;;;;19.25;74.62;98978.84;5070692;28;20035;-62
2022/08/31 07:09:41;;;;;;;4.18;2.90;;;;;;;19.35;74.05;98980.06;5076812;28;20028;-62
2022/08/31 07:12:07;;;;;;;5.28;3.25;;;;;;;19.45;72.66;98981.00;5062474;28;20111;-62
2022/08/31 07:14:33;;;;;;;7.50;2.60;;;;;;;19.56;73.79;98981.13;5067826;28;20844;-62
2022/08/31 07:17:01;;;;;;;5.65;3.00;;;;;;;19.79;72.75;98989.09;5073653;28;20024;-62
2022/08/31 07:19:27;;;;;;;5.72;2.95;;;;;;;19.82;72.34;98985.00;5077324;28;20024;-62
2022/08/31 07:21:58;;;;;;;4.47;2.80;;;;;;;19.89;72.04;98991.94;5074775;28;20040;-62
2022/08/31 07:24:28;;;;;;;4.63;2.90;;;;;;;19.93;70.33;98986.75;5059257;28;20063;-66
2022/08/31 07:27:01;;;;;;;7.25;3.10;;;;;;;20.03;70.82;98986.03;5077197;28;20028;-63
2022/08/31 07:29:29;;;;;;;5.70;3.17;;;;;;;20.23;69.63;98979.88;5059108;28;20070;-62
2022/08/31 07:31:56;;;;;;;10.65;2.90;;;;;;;20.39;68.17;98983.59;5077120;28;20110;-62
2022/08/31 07:34:32;;;;;;;6.57;3.20;;;;;;;20.34;68.35;98960.47;5070602;28;20357;-62
2022/08/31 07:42:31;;;;;;;5.32;3.60;;;;;;;20.67;66.38;98979.66;5087390;28;20047;-67
2022/08/31 07:44:59;;;;;;;6.70;3.30;;;;;;;20.93;65.40;98983.41;5062322;28;20090;-70
2022/08/31 07:47:27;;;;;;;7.72;3.35;;;;;;;20.77;64.72;98975.06;5068200;28;20110;-62
2022/08/31 07:49:57;;;;;;;3.80;3.22;;;;;;;20.87;64.59;98981.72;5071057;28;20028;-64
2022/08/31 07:52:26;;;;;;;7.47;3.45;;;;;;;21.11;64.14;98982.13;5070103;28;20036;-63
2022/08/31 07:54:55;;;;;;;8.20;3.60;;;;;;;21.00;64.40;98984.81;5065126;28;20017;-65
2022/08/31 07:57:24;;;;;;;5.50;3.42;;;;;;;20.99;64.17;98979.59;5065905;28;20521;-62
2022/08/31 08:00:00;;;;;;;5.45;3.40;;;;;;;21.09;64.32;98982.41;5064364;28;20643;-63
2022/08/31 08:02:27;;;;;;;5.95;3.55;;;;;;;21.08;63.94;98985.41;5068613;28;20056;-70
2022/08/31 08:04:53;;;;;;;4.43;3.08;;;;;;;21.00;64.67;98981.25;5072557;28;20040;-62
2022/08/31 08:07:18;;;;;;;6.80;3.55;;;;;;;20.95;64.07;98982.03;5068982;28;20024;-66
2022/08/31 08:09:44;;;;;;;6.57;3.42;;;;;;;21.01;64.52;98983.75;5065534;28;20035;-63
2022/08/31 08:12:09;;;;;;;5.13;3.42;;;;;;;21.07;64.53;98995.59;5067608;28;20471;-63
2022/08/31 08:14:38;;;;;;;4.25;3.25;;;;;;;21.33;63.40;98998.47;5071146;28;20048;-63
2022/08/31 08:17:07;;;;;;;8.73;3.17;;;;;;;21.20;63.51;99000.59;5077317;28;20030;-63
2022/08/31 08:19:33;;;;;;;5.53;3.63;;;;;;;21.22;64.20;99003.06;5067894;28;20126;-63
2022/08/31 08:22:01;;;;;;;5.50;2.90;;;;;;;21.30;64.57;99012.75;5061984;28;20069;-63
2022/08/31 08:24:28;;;;;;;8.40;3.58;;;;;;;21.17;64.17;99006.66;5064592;28;20028;-63
2022/08/31 08:26:54;;;;;;;12.25;3.78;;;;;;;21.10;64.49;99019.00;5065970;28;20443;-62
2022/08/31 08:29:22;;;;;;;5.50;2.95;;;;;;;21.01;65.88;99015.91;5066375;28;20081;-63
2022/08/31 08:31:53;;;;;;;5.07;3.15;;;;;;;21.02;65.23;99021.16;5065452;28;20127;-62
2022/08/31 08:34:22;;;;;;;6.40;3.22;;;;;;;21.07;64.94;99022.28;5062173;28;20108;-63
2022/08/31 08:36:48;;;;;;;6.60;3.35;;;;;;;20.96;65.78;99018.66;5058423;28;20104;-63
2022/08/31 08:39:16;;;;;;;7.03;3.30;;;;;;;20.95;65.07;99025.22;5088671;28;20501;-63
2022/08/31 08:41:43;;;;;;;7.15;3.40;;;;;;;21.07;65.16;99020.34;5090992;28;20107;-62
2022/08/31 08:44:12;;;;;;;5.65;3.40;;;;;;;20.97;65.73;99017.53;5073709;28;20024;-62
2022/08/31 08:46:46;;;;;;;4.60;3.38;;;;;;;20.96;65.98;99024.16;5067716;28;20032;-61
2022/08/31 08:49:27;;;;;;;4.10;3.35;;;;;;;20.91;66.17;99024.13;5073522;28;20043;-61
2022/08/31 08:52:02;;;;;;;5.85;3.28;;;;;;;20.99;65.79;99013.44;5066836;28;20479;-61
2022/08/31 08:54:32;;;;;;;7.90;3.60;;;;;;;20.96;66.61;99026.91;5064222;28;20024;-61
2022/08/31 08:57:01;;;;;;;6.63;3.05;;;;;;;20.84;67.04;99023.50;5075533;28;20031;-62
2022/08/31 08:59:27;;;;;;;5.25;3.30;;;;;;;20.81;66.96;99037.81;5077305;28;20114;-61
2022/08/31 09:01:56;;;;;;;7.65;4.03;;;;;;;20.75;67.24;99029.50;5072990;28;20466;-61
2022/08/31 09:04:58;;;;;;;6.40;3.67;;;;;;;20.77;67.46;99035.56;5063142;28;20035;-62
2022/08/31 09:07:49;;;;;;;5.10;3.30;;;;;;;20.71;67.47;99031.13;5064740;28;20032;-61
2022/08/31 09:10:33;;;;;;;7.63;3.50;;;;;;;20.85;68.00;99031.47;5070569;28;20028;-61
2022/08/31 09:13:24;;;;;;;4.88;3.40;;;;;;;21.12;66.54;99038.81;5068666;28;20043;-61
2022/08/31 09:15:55;;;;;;;5.70;3.00;;;;;;;21.23;65.71;99033.09;5071736;28;20110;-61
2022/08/31 09:18:48;;;;;;;7.00;3.38;;;;;;;21.40;65.64;99040.34;5074962;28;20074;-61
2022/08/31 09:21:28;;;;;;;4.60;3.03;;;;;;;21.44;64.88;99046.97;5067992;28;20028;-61
2022/08/31 09:24:01;;;;;;;4.88;3.45;;;;;;;21.39;64.96;99046.97;5067361;28;20131;-61
2022/08/31 09:26:34;;;;;;;9.93;3.78;;;;;;;21.35;64.92;99048.53;5062747;28;20028;-61
2022/08/31 09:29:02;;;;;;;7.82;3.58;;;;;;;21.47;65.20;99046.44;5072634;28;20035;-65
2022/08/31 09:31:41;;;;;;;6.17;3.40;;;;;;;21.49;64.21;99038.75;5072407;28;20063;-61
2022/08/31 09:34:29;;;;;;;7.03;3.57;;;;;;;21.80;63.33;99049.88;5073220;22;20312;-68
2022/08/31 09:37:15;;;;;;;6.85;3.67;;;;;;;21.92;63.27;99049.63;4998829;28;20328;-68
2022/08/31 09:39:47;;;;;;;4.80;3.30;;;;;;;22.14;62.13;99046.63;5005065;28;20029;-68
2022/08/31 09:42:18;;;;;;;5.38;3.75;;;;;;;22.21;61.73;99049.97;5003273;28;20561;-68
2022/08/31 09:44:48;;;;;;;5.63;3.28;;;;;;;22.24;61.33;99043.91;4996964;28;20072;-65
2022/08/31 09:47:41;;;;;;;5.50;3.72;;;;;;;22.33;61.25;99035.94;5000985;28;20024;-67
2022/08/31 09:50:09;;;;;;;6.28;3.20;;;;;;;22.43;60.68;99027.69;4996426;28;21978;-67
2022/08/31 09:55:24;;;;;;;5.93;3.53;;;;;;;22.87;58.51;99027.06;5004348;28;20032;-70
2022/08/31 09:57:54;;;;;;;7.07;3.88;;;;;;;22.99;58.72;99029.56;5005965;28;20021;-72
2022/08/31 10:00:30;;;;;;;4.63;3.38;;;;;;;23.26;57.68;99040.25;5007529;28;20049;-74
2022/08/31 10:03:07;;;;;;;4.68;3.13;;;;;;;23.59;56.94;99028.53;5017034;28;20026;-72
2022/08/31 10:05:39;;;;;;;6.00;3.80;;;;;;;23.96;55.83;99032.78;5003768;28;20499;-71
2022/08/31 10:08:33;;;;;;;6.13;3.30;;;;;;;24.54;54.51;99025.75;5005366;28;20510;-73
2022/08/31 10:11:09;;;;;;;7.30;4.10;;;;;;;24.60;54.19;99038.41;4999763;28;20045;-74
2022/08/31 10:14:27;;;;;;;6.68;3.30;;;;;;;24.56;53.07;99029.06;5008900;28;20044;-71
2022/08/31 10:17:01;;;;;;;5.23;3.50;;;;;;;24.47;54.00;99026.06;5002239;28;20149;-73
2022/08/31 10:19:48;;;;;;;7.10;3.42;;;;;;;24.82;52.85;99026.91;5001909;28;20026;-69
2022/08/31 10:22:24;;;;;;;4.00;2.90;;;;;;;24.76;52.54;99037.19;5002283;28;20030;-69
2022/08/31 10:25:11;;;;;;;7.43;3.80;;;;;;;24.78;52.88;99045.19;5005055;28;20025;-68
2022/08/31 10:27:48;;;;;;;7.97;3.33;;;;;;;24.38;53.81;99039.69;5009621;28;20109;-68
2022/08/31 10:30:32;;;;;;;8.77;3.28;;;;;;;24.32;54.00;99029.78;5001536;28;20036;-68
2022/08/31 10:33:07;;;;;;;7.10;3.60;;;;;;;23.91;54.44;99051.34;5002657;28;20034;-68
2022/08/31 10:35:51;;;;;;;4.28;3.40;;;;;;;23.57;55.78;99041.78;5006767;28;20033;-68
2022/08/31 10:38:37;;;;;;;5.90;3.63;;;;;;;23.31;56.83;99045.75;5013592;28;20117;-68
2022/08/31 10:41:15;;;;;;;5.97;3.33;;;;;;;23.37;56.37;99042.72;5008305;28;20045;-68
2022/08/31 10:43:49;;;;;;;6.68;3.20;;;;;;;23.20;56.95;99042.22;5003309;28;20112;-69
2022/08/31 10:46:16;;;;;;;5.60;3.65;;;;;;;22.96;57.42;99030.94;5009927;28;20018;-68
2022/08/31 10:48:49;;;;;;;5.05;3.63;;;;;;;23.02;58.06;99037.28;5007988;28;20033;-68
2022/08/31 10:51:21;;;;;;;7.35;3.90;;;;;;;22.95;58.08;99040.28;5005822;28;20394;-68
2022/08/31 10:54:32;;;;;;;6.15;3.67;;;;;;;22.66;58.74;99037.31;5004986;28;20962;-68
2022/08/31 10:57:31;;;;;;;5.78;3.22;;;;;;;22.80;58.57;99043.09;4971657;28;20050;-68
2022/08/31 11:00:03;;;;;;;6.68;3.63;;;;;;;22.83;58.70;99042.53;5004806;28;20054;-69
2022/08/31 11:03:03;;;;;;;10.70;3.90;;;;;;;22.93;58.49;99042.53;5008494;28;20030;-68
2022/08/31 11:05:45;;;;;;;5.75;3.65;;;;;;;23.03;57.93;99030.66;5005064;28;20030;-68
2022/08/31 11:08:28;;;;;;;4.88;3.42;;;;;;;23.14;57.33;99043.34;5007369;28;20479;-68
2022/08/31 11:10:55;;;;;;;7.68;4.30;;;;;;;23.35;56.67;99030.31;5009076;28;20147;-68
2022/08/31 11:13:59;;;;;;;6.72;3.40;;;;;;;23.78;56.36;99037.03;5011208;28;20033;-69
2022/08/31 11:16:58;;;;;;;5.85;3.80;;;;;;;24.03;55.79;99038.81;5026887;28;20030;-69
2022/08/31 11:19:29;;;;;;;6.28;3.67;;;;;;;24.43;53.97;99031.34;5028641;28;20025;-68
2022/08/31 11:22:18;;;;;;;5.97;3.47;;;;;;;24.40;53.66;99026.41;5025753;28;20026;-68
2022/08/31 11:25:06;;;;;;;5.95;3.47;;;;;;;24.63;53.71;99029.56;5024609;28;20030;-69
2022/08/31 11:27:43;;;;;;;9.38;3.67;;;;;;;24.69;53.24;99028.41;5033988;28;20030;-67
2022/08/31 11:30:25;;;;;;;6.03;3.85;;;;;;;24.50;53.50;99031.06;5027209;28;20014;-68
2022/08/31 11:32:54;;;;;;;6.47;3.30;;;;;;;24.61;53.81;99035.38;5007585;28;20021;-68
2022/08/31 11:36:01;;;;;;;5.75;3.58;;;;;;;24.93;52.65;99033.97;5005041;28;20030;-69
2022/08/31 11:38:46;;;;;;;4.63;3.22;;;;;;;25.08;52.69;99036.59;5023902;28;20034;-69
2022/08/31 11:41:45;;;;;;;5.90;3.95;;;;;;;24.09;54.04;99034.09;5007464;28;20411;-69
2022/08/31 11:44:30;;;;;;;6.90;3.45;;;;;;;24.96;52.70;99032.56;5011201;28;20037;-68
2022/08/31 11:47:28;;;;;;;6.60;3.20;;;;;;;25.50;51.88;99029.47;5008216;28;20029;-69
2022/08/31 11:50:02;;;;;;;6.25;3.75;;;;;;;25.44;50.51;99022.38;5002050;28;20042;-69
2022/08/31 11:52:52;;;;;;;9.00;3.90;;;;;;;25.66;50.70;99019.03;5008642;28;20034;-69
2022/08/31 11:55:20;;;;;;;4.30;3.00;;;;;;;25.96;49.50;99020.59;5009383;28;20018;-68
2022/08/31 11:58:08;;;;;;;4.47;3.20;;;;;;;26.35;49.05;99027.72;5008335;28;20057;-68